»·PEaware :: MES990 CYQB-KASE

MES990 :: CYQB-KASE

FLIGHT INFORMATION

Flight Status: Arrived
Operator:
Mesaba Aviation
More flights by this operator :: More flights under this callsign
Pilot: Matthew M. (8235)
Aircraft: BRITISH AERO RJ-85
(RJ85)
More flights by this aircraft type
Origin: CYQB Quebec/Lesage Intl
Canada
Destination: KASE Aspen-Pitkin Co/Sardy
United States
More flights between these airports :: More routes between these airports
Route: +XUBUN YYB PLN RST ONL J114 DVV J60 DBL
File this flight plan on PilotEdge
Remarks:
Altitude:
(Current/Filed)
32,000ft
Speed:
(Current/Filed)
404kts
Departed: 26-Apr-20 06:10 AM
Arrived: 26-Apr-20 12:16 PM
Distance/Time
Traveled:
1606nm/6:05
Distance/Time
To Go:
Arrived

Flight Plot

Page will automatically refresh every two minutes.


Map Options




Map Legend


Flown Route
Filed Route
Departure Airport
Arrival Airport
Navaid (VOR, NDB)
Fix

Horizontal Profiles

Position Reports

Time Latitude Longitude Heading Altitude Ground
Speed
26-Apr-20 06:05 46.790024 -71.382577 210 252ft 0kts
26-Apr-20 06:06 46.789895 -71.382608 169 252ft 9kts
26-Apr-20 06:07 46.787941 -71.381851 182 252ft 10kts
26-Apr-20 06:08 46.787030 -71.380844 278 252ft 0kts
26-Apr-20 06:09 46.788743 -71.399177 278 384ft 148kts
26-Apr-20 06:10 46.788922 -71.443313 249 2586ft 189kts
26-Apr-20 06:11 46.772970 -71.484422 238 4662ft 228kts
26-Apr-20 06:12 46.734773 -71.571241 238 7946ft 267kts
26-Apr-20 06:13 46.704837 -71.670158 261 11157ft 274kts
26-Apr-20 06:14 46.699051 -71.787721 268 13487ft 298kts
26-Apr-20 06:16 46.698197 -71.909894 268 15907ft 304kts
26-Apr-20 06:17 46.697484 -72.034068 268 17994ft 309kts
26-Apr-20 06:18 46.696528 -72.159915 267 19766ft 314kts
26-Apr-20 06:19 46.695268 -72.288868 266 21308ft 320kts
26-Apr-20 06:20 46.692989 -72.419568 266 22677ft 325kts
26-Apr-20 06:21 46.690884 -72.551978 266 23852ft 330kts
26-Apr-20 06:22 46.689102 -72.686184 266 24994ft 331kts
26-Apr-20 06:23 46.686841 -72.819181 265 26374ft 325kts
26-Apr-20 06:24 46.684348 -72.950014 265 27718ft 321kts
26-Apr-20 06:25 46.682329 -73.078743 265 29088ft 316kts
26-Apr-20 06:26 46.679359 -73.205201 265 30435ft 310kts
26-Apr-20 06:27 46.676180 -73.331160 265 31571ft 310kts
26-Apr-20 06:28 46.673322 -73.456726 265 32250ft 310kts
26-Apr-20 06:29 46.670611 -73.585340 265 32267ft 326kts
26-Apr-20 06:30 46.666831 -73.719457 264 32264ft 335kts
26-Apr-20 06:31 46.662866 -73.855375 264 32261ft 336kts
26-Apr-20 06:32 46.658681 -73.991322 264 32239ft 337kts
26-Apr-20 06:33 46.654624 -74.127733 264 32240ft 337kts
26-Apr-20 06:34 46.650516 -74.263812 264 32242ft 337kts
26-Apr-20 06:35 46.646587 -74.398135 264 32241ft 337kts
26-Apr-20 06:35 46.642452 -74.514012 264 32240ft 337kts
26-Apr-20 06:37 46.636672 -74.672848 263 32238ft 337kts
26-Apr-20 06:38 46.631709 -74.809280 263 32236ft 337kts
26-Apr-20 06:38 46.627507 -74.922693 263 32233ft 337kts
26-Apr-20 06:40 46.621774 -75.081828 263 32233ft 338kts
26-Apr-20 06:40 46.617454 -75.195779 263 32233ft 338kts
26-Apr-20 06:41 46.611604 -75.332462 263 32232ft 339kts
26-Apr-20 06:42 46.605623 -75.469491 263 32230ft 340kts
26-Apr-20 06:43 46.599668 -75.606861 263 32226ft 341kts
26-Apr-20 06:44 46.593939 -75.745014 263 32222ft 342kts
26-Apr-20 06:45 46.587829 -75.883321 262 32222ft 343kts
26-Apr-20 06:46 46.581082 -76.021755 262 32222ft 344kts
26-Apr-20 06:47 46.574259 -76.160855 262 32222ft 344kts
26-Apr-20 06:48 46.567313 -76.299802 262 32221ft 344kts
26-Apr-20 06:49 46.560551 -76.438432 262 32220ft 344kts
26-Apr-20 06:50 46.553865 -76.577215 262 32219ft 344kts
26-Apr-20 06:51 46.546171 -76.715548 262 32218ft 343kts
26-Apr-20 06:52 46.538467 -76.853629 262 32217ft 343kts
26-Apr-20 06:53 46.530633 -76.991374 262 32216ft 342kts
26-Apr-20 06:54 46.522970 -77.129260 262 32215ft 343kts
26-Apr-20 06:55 46.515335 -77.267223 262 32214ft 343kts
26-Apr-20 06:56 46.507141 -77.405378 261 32212ft 344kts
26-Apr-20 06:57 46.498531 -77.544060 261 32211ft 345kts
26-Apr-20 06:58 46.489795 -77.682915 261 32211ft 346kts
26-Apr-20 06:59 46.480885 -77.822383 261 32216ft 347kts
26-Apr-20 07:00 46.471992 -77.961111 261 32218ft 348kts
26-Apr-20 07:01 46.462998 -78.101491 261 32217ft 349kts
26-Apr-20 07:02 46.454028 -78.242024 261 32215ft 349kts
26-Apr-20 07:03 46.444300 -78.382074 261 32212ft 349kts
26-Apr-20 07:04 46.434426 -78.521763 261 32209ft 348kts
26-Apr-20 07:05 46.424517 -78.661202 261 32205ft 348kts
26-Apr-20 07:06 46.414710 -78.800524 261 32200ft 347kts
26-Apr-20 07:07 46.405219 -78.938506 261 32195ft 346kts
26-Apr-20 07:08 46.394651 -79.077522 260 32190ft 346kts
26-Apr-20 07:09 46.384022 -79.215914 260 32185ft 345kts
26-Apr-20 07:10 46.373313 -79.354147 260 32182ft 346kts
26-Apr-20 07:11 46.360792 -79.492029 258 32182ft 345kts
26-Apr-20 07:12 46.345054 -79.629167 257 32182ft 345kts
26-Apr-20 07:13 46.328517 -79.766301 257 32182ft 345kts
26-Apr-20 07:14 46.311928 -79.903064 257 32182ft 345kts
26-Apr-20 07:15 46.295114 -80.039769 257 32184ft 345kts
26-Apr-20 07:16 46.278204 -80.176822 257 32186ft 346kts
26-Apr-20 07:17 46.261412 -80.313449 257 32189ft 346kts
26-Apr-20 07:18 46.244710 -80.450882 257 32192ft 346kts
26-Apr-20 07:19 46.227492 -80.587368 256 32204ft 346kts
26-Apr-20 07:20 46.209842 -80.724400 257 32204ft 347kts
26-Apr-20 07:21 46.191859 -80.861704 256 32210ft 347kts
26-Apr-20 07:22 46.173943 -80.998593 256 32210ft 348kts
26-Apr-20 07:32 46.789920 -71.382072 145 252ft 0kts
26-Apr-20 07:33 46.789920 -71.382072 145 252ft 0kts
26-Apr-20 07:34 46.789920 -71.382072 145 252ft 0kts
26-Apr-20 07:35 46.789919 -71.382072 145 252ft 0kts
26-Apr-20 07:36 46.789586 -71.381826 162 252ft 10kts
26-Apr-20 07:37 46.787113 -71.381874 275 252ft 0kts
26-Apr-20 07:38 46.791715 -71.428807 278 1408ft 175kts
26-Apr-20 07:39 46.763846 -71.503943 236 4788ft 227kts
26-Apr-20 07:40 46.725460 -71.590355 238 7946ft 268kts
26-Apr-20 07:41 46.702658 -71.693475 264 11128ft 276kts
26-Apr-20 07:42 46.698798 -71.811459 268 13504ft 299kts
26-Apr-20 07:43 46.697928 -71.933573 268 15950ft 303kts
26-Apr-20 07:44 46.697231 -72.057599 268 18031ft 308kts
26-Apr-20 07:45 46.696209 -72.184014 267 19778ft 315kts
26-Apr-20 07:46 46.694918 -72.312780 266 21323ft 320kts
26-Apr-20 07:47 46.692645 -72.443273 266 22683ft 325kts
26-Apr-20 07:48 46.690554 -72.576228 266 23856ft 330kts
26-Apr-20 07:49 46.688807 -72.710211 266 24968ft 332kts
26-Apr-20 07:50 46.686364 -72.843035 265 26357ft 325kts
26-Apr-20 07:51 46.683873 -72.973941 265 27707ft 321kts
26-Apr-20 07:52 46.681830 -73.102692 265 29096ft 315kts
26-Apr-20 07:53 46.678745 -73.229421 265 30418ft 311kts
26-Apr-20 07:54 46.675565 -73.355303 265 31560ft 310kts
26-Apr-20 07:55 46.672737 -73.480487 265 32242ft 309kts
26-Apr-20 07:56 46.670099 -73.609081 265 32257ft 327kts
26-Apr-20 07:57 46.666232 -73.743281 265 32255ft 335kts
26-Apr-20 07:58 46.662140 -73.879547 264 32244ft 337kts
26-Apr-20 07:59 46.657917 -74.015405 264 32233ft 337kts
26-Apr-20 08:00 46.653889 -74.151906 264 32237ft 337kts
26-Apr-20 08:01 46.649802 -74.288099 264 32238ft 337kts
26-Apr-20 08:02 46.645780 -74.424566 264 32238ft 337kts
26-Apr-20 08:03 46.640798 -74.560859 264 32235ft 337kts
26-Apr-20 08:04 46.635873 -74.697072 263 32234ft 337kts
26-Apr-20 08:05 46.630725 -74.833310 263 32231ft 337kts
26-Apr-20 08:06 46.625709 -74.969153 263 32229ft 337kts
26-Apr-20 08:07 46.620836 -75.106230 264 32229ft 338kts
26-Apr-20 08:08 46.615396 -75.242573 263 32229ft 338kts
26-Apr-20 08:09 46.609578 -75.379778 263 32229ft 339kts
26-Apr-20 08:10 46.603583 -75.516774 263 32230ft 340kts
26-Apr-20 08:11 46.597717 -75.654328 263 32220ft 342kts
26-Apr-20 08:12 46.592029 -75.792429 263 32223ft 343kts
26-Apr-20 08:13 46.585465 -75.930849 262 32223ft 343kts
26-Apr-20 08:14 46.578758 -76.069678 262 32222ft 344kts
26-Apr-20 08:15 46.571837 -76.208512 262 32222ft 345kts
26-Apr-20 08:16 46.565013 -76.347265 262 32221ft 344kts
26-Apr-20 08:17 46.558291 -76.486357 262 32220ft 344kts
26-Apr-20 08:18 46.551552 -76.624880 261 32219ft 344kts
26-Apr-20 08:19 46.545099 -76.763696 261 32218ft 345kts
26-Apr-20 08:20 46.537351 -76.902786 261 32217ft 345kts
26-Apr-20 08:21 46.529186 -77.041511 261 32216ft 345kts
26-Apr-20 08:22 46.521235 -77.180665 261 32215ft 346kts
26-Apr-20 08:23 46.513403 -77.320086 261 32215ft 347kts
26-Apr-20 08:24 46.505392 -77.460115 260 32214ft 348kts
26-Apr-20 08:25 46.496522 -77.600444 260 32214ft 349kts
26-Apr-20 08:26 46.487609 -77.740942 260 32214ft 351kts
26-Apr-20 08:27 46.478385 -77.882448 260 32220ft 352kts
26-Apr-20 08:28 46.469343 -78.023816 260 32221ft 353kts
26-Apr-20 08:29 46.460317 -78.165809 260 32221ft 354kts
26-Apr-20 08:31 46.450879 -78.308340 260 32220ft 354kts
26-Apr-20 08:32 46.440936 -78.450301 260 32217ft 354kts
26-Apr-20 08:33 46.430864 -78.592169 260 32213ft 353kts
26-Apr-20 08:34 46.420677 -78.733621 260 32210ft 353kts
26-Apr-20 08:35 46.410475 -78.874961 260 32206ft 352kts
26-Apr-20 08:36 46.400390 -79.016252 260 32201ft 352kts
26-Apr-20 08:37 46.389950 -79.157250 259 32196ft 352kts
26-Apr-20 08:38 46.379024 -79.297922 259 32193ft 352kts
26-Apr-20 08:39 46.367499 -79.438888 258 32192ft 352kts
26-Apr-20 08:40 46.351881 -79.578534 257 32192ft 352kts
26-Apr-20 08:41 46.335120 -79.718186 256 32192ft 352kts
26-Apr-20 08:42 46.318428 -79.858151 257 32192ft 352kts
26-Apr-20 08:43 46.301676 -79.997787 256 32194ft 352kts
26-Apr-20 08:44 46.284368 -80.137501 256 32198ft 353kts
26-Apr-20 08:45 46.267020 -80.277039 256 32202ft 353kts
26-Apr-20 08:46 46.249478 -80.416674 256 32207ft 353kts
26-Apr-20 08:47 46.231813 -80.556306 256 32210ft 353kts
26-Apr-20 08:48 46.214110 -80.695955 256 32212ft 353kts
26-Apr-20 08:48 46.199263 -80.812491 256 32213ft 354kts
26-Apr-20 08:50 46.178304 -80.975785 256 32219ft 354kts
26-Apr-20 08:51 46.159793 -81.115411 256 32219ft 354kts
26-Apr-20 08:51 46.144343 -81.231287 256 32219ft 353kts
26-Apr-20 08:53 46.122356 -81.393830 256 32215ft 353kts
26-Apr-20 08:53 46.106880 -81.509511 256 32212ft 352kts
26-Apr-20 08:54 46.088780 -81.648174 256 32210ft 352kts
26-Apr-20 08:55 46.069800 -81.785997 255 32207ft 351kts
26-Apr-20 08:56 46.050777 -81.923581 255 32205ft 350kts
26-Apr-20 08:57 46.031938 -82.061337 255 32204ft 350kts
26-Apr-20 08:58 46.012582 -82.198172 255 32203ft 350kts
26-Apr-20 08:59 45.992795 -82.335728 255 32203ft 350kts
26-Apr-20 09:00 45.972640 -82.473106 255 32202ft 351kts
26-Apr-20 09:01 45.952527 -82.610525 255 32202ft 353kts
26-Apr-20 09:02 45.932064 -82.748858 255 32203ft 355kts
26-Apr-20 09:03 45.911165 -82.887869 255 32207ft 357kts
26-Apr-20 09:04 45.890148 -83.027392 255 32213ft 358kts
26-Apr-20 09:05 45.868713 -83.167944 256 32220ft 360kts
26-Apr-20 09:06 45.847110 -83.308319 256 32223ft 362kts
26-Apr-20 09:07 45.825256 -83.449365 256 32228ft 363kts
26-Apr-20 09:08 45.803176 -83.590530 256 32230ft 363kts
26-Apr-20 09:09 45.780898 -83.731923 256 32231ft 364kts
26-Apr-20 09:10 45.758341 -83.873646 256 32235ft 364kts
26-Apr-20 09:11 45.735691 -84.014979 256 32236ft 364kts
26-Apr-20 09:12 45.712853 -84.156051 256 32236ft 364kts
26-Apr-20 09:13 45.689952 -84.297659 256 32235ft 365kts
26-Apr-20 09:14 45.667284 -84.439081 256 32233ft 365kts
26-Apr-20 09:15 45.644506 -84.580599 256 32232ft 366kts
26-Apr-20 09:16 45.619368 -84.722065 254 32238ft 367kts
26-Apr-20 09:17 45.591614 -84.862252 254 32241ft 368kts
26-Apr-20 09:18 45.563819 -85.003832 254 32237ft 370kts
26-Apr-20 09:19 45.535882 -85.145276 254 32238ft 371kts
26-Apr-20 09:20 45.507640 -85.287134 254 32240ft 372kts
26-Apr-20 09:21 45.478985 -85.429146 254 32243ft 373kts
26-Apr-20 09:22 45.450297 -85.571675 254 32245ft 375kts
26-Apr-20 09:23 45.421187 -85.714364 254 32247ft 375kts
26-Apr-20 09:24 45.392175 -85.856607 254 32246ft 375kts
26-Apr-20 09:25 45.363136 -85.999504 254 32245ft 376kts
26-Apr-20 09:26 45.333911 -86.142803 255 32239ft 377kts
26-Apr-20 09:27 45.303956 -86.285739 254 32242ft 378kts
26-Apr-20 09:28 45.273824 -86.428522 254 32250ft 378kts
26-Apr-20 09:29 45.243636 -86.571488 254 32252ft 378kts
26-Apr-20 09:30 45.213339 -86.714393 254 32254ft 378kts
26-Apr-20 09:31 45.183171 -86.857313 254 32257ft 378kts
26-Apr-20 09:32 45.152492 -87.000041 254 32260ft 379kts
26-Apr-20 09:33 45.121414 -87.142918 254 32264ft 379kts
26-Apr-20 09:34 45.089966 -87.285430 254 32274ft 380kts
26-Apr-20 09:35 45.058398 -87.428414 254 32277ft 381kts
26-Apr-20 09:36 45.026653 -87.571632 254 32278ft 381kts
26-Apr-20 09:37 44.994975 -87.714608 254 32276ft 381kts
26-Apr-20 09:38 44.963441 -87.857663 254 32267ft 381kts
26-Apr-20 09:39 44.930984 -87.999975 254 32264ft 381kts
26-Apr-20 09:40 44.898241 -88.143099 254 32264ft 383kts
26-Apr-20 09:41 44.865397 -88.286049 254 32258ft 384kts
26-Apr-20 09:42 44.832022 -88.429447 254 32254ft 385kts
26-Apr-20 09:43 44.798782 -88.572622 254 32252ft 385kts
26-Apr-20 09:44 44.765576 -88.716103 254 32252ft 385kts
26-Apr-20 09:45 44.732459 -88.859601 254 32253ft 385kts
26-Apr-20 09:46 44.698624 -89.001517 254 32689ft 383kts
26-Apr-20 09:47 44.664276 -89.144960 254 33192ft 389kts
26-Apr-20 09:48 44.629435 -89.289823 254 33692ft 394kts
26-Apr-20 09:49 44.593707 -89.436601 254 34184ft 399kts
26-Apr-20 09:50 44.557360 -89.585311 254 34253ft 406kts
26-Apr-20 09:51 44.520742 -89.735000 254 34250ft 405kts
26-Apr-20 09:52 44.484489 -89.883941 254 34249ft 404kts
26-Apr-20 09:53 44.448147 -90.033128 254 34246ft 404kts
26-Apr-20 09:54 44.410779 -90.181642 253 34242ft 405kts
26-Apr-20 09:55 44.373372 -90.329969 253 34235ft 405kts
26-Apr-20 09:56 44.335732 -90.478602 254 34229ft 405kts
26-Apr-20 09:57 44.297651 -90.626976 254 34226ft 406kts
26-Apr-20 09:58 44.259510 -90.775236 254 34223ft 406kts
26-Apr-20 09:59 44.221010 -90.923772 254 34222ft 407kts
26-Apr-20 10:00 44.182358 -91.072016 254 34223ft 407kts
26-Apr-20 10:01 44.143513 -91.220537 254 34224ft 408kts
26-Apr-20 10:02 44.104393 -91.368845 255 34219ft 409kts
26-Apr-20 10:03 44.064946 -91.517334 255 34215ft 409kts
26-Apr-20 10:04 44.025306 -91.665812 255 34203ft 410kts
26-Apr-20 10:05 43.985461 -91.813926 255 34202ft 410kts
26-Apr-20 10:06 43.945299 -91.962479 255 34201ft 410kts
26-Apr-20 10:07 43.905140 -92.110186 255 34199ft 410kts
26-Apr-20 10:08 43.864834 -92.258369 255 34198ft 410kts
26-Apr-20 10:09 43.824192 -92.405701 255 34195ft 410kts
26-Apr-20 10:10 43.783487 -92.552857 256 34193ft 404kts
26-Apr-20 10:11 43.751535 -92.698815 262 34196ft 390kts
26-Apr-20 10:12 43.724852 -92.843157 263 34200ft 387kts
26-Apr-20 10:13 43.697522 -92.986785 263 34201ft 386kts
26-Apr-20 10:14 43.669778 -93.130070 263 34198ft 386kts
26-Apr-20 10:15 43.641968 -93.273621 263 34194ft 386kts
26-Apr-20 10:16 43.614167 -93.416650 263 34192ft 386kts
26-Apr-20 10:17 43.586214 -93.559507 263 34192ft 385kts
26-Apr-20 10:18 43.557938 -93.702291 263 34191ft 386kts
26-Apr-20 10:19 43.529565 -93.845088 263 34190ft 386kts
26-Apr-20 10:20 43.501232 -93.987749 263 34188ft 386kts
26-Apr-20 10:21 43.472872 -94.130267 263 34185ft 385kts
26-Apr-20 10:22 43.444505 -94.272575 264 34183ft 384kts
26-Apr-20 10:23 43.416051 -94.413825 263 34182ft 384kts
26-Apr-20 10:24 43.386997 -94.555122 263 34182ft 382kts
26-Apr-20 10:25 43.358029 -94.695232 263 34182ft 381kts
26-Apr-20 10:26 43.328581 -94.835485 263 34182ft 380kts
26-Apr-20 10:27 43.299717 -94.974648 263 34182ft 379kts
26-Apr-20 10:28 43.270796 -95.113503 263 34182ft 377kts
26-Apr-20 10:29 43.242154 -95.251621 263 34182ft 376kts
26-Apr-20 10:30 43.212452 -95.389751 263 34181ft 376kts
26-Apr-20 10:32 43.182994 -95.527043 263 34180ft 375kts
26-Apr-20 10:33 43.153205 -95.664024 263 34176ft 375kts
26-Apr-20 10:34 43.123554 -95.801063 263 34165ft 374kts
26-Apr-20 10:35 43.094297 -95.937327 263 34165ft 373kts
26-Apr-20 10:36 43.064860 -96.073503 262 34169ft 373kts
26-Apr-20 10:37 43.034674 -96.209055 262 34171ft 371kts
26-Apr-20 10:38 43.004672 -96.344183 262 34171ft 370kts
26-Apr-20 10:39 42.975097 -96.478577 262 34170ft 370kts
26-Apr-20 10:40 42.944930 -96.613047 261 34171ft 370kts
26-Apr-20 10:41 42.914383 -96.747312 262 34171ft 370kts
26-Apr-20 10:42 42.883946 -96.881316 262 34172ft 369kts
26-Apr-20 10:43 42.853953 -97.015042 262 34174ft 369kts
26-Apr-20 10:44 42.823307 -97.148672 261 34173ft 369kts
26-Apr-20 10:45 42.792268 -97.282164 261 34173ft 368kts
26-Apr-20 10:46 42.761729 -97.414858 261 34173ft 368kts
26-Apr-20 10:46 42.736226 -97.525924 260 34172ft 368kts
26-Apr-20 10:48 42.699414 -97.680608 260 34169ft 368kts
26-Apr-20 10:49 42.668096 -97.812729 260 34163ft 367kts
26-Apr-20 10:49 42.642161 -97.922704 260 34158ft 367kts
26-Apr-20 10:50 42.610922 -98.055233 259 34149ft 369kts
26-Apr-20 10:51 42.579034 -98.188507 259 34136ft 371kts
26-Apr-20 10:52 42.547264 -98.321566 259 34130ft 372kts
26-Apr-20 10:53 42.514564 -98.454769 259 34126ft 372kts
26-Apr-20 10:54 42.481648 -98.587565 259 34122ft 371kts
26-Apr-20 10:55 42.442522 -98.718353 249 34123ft 381kts
26-Apr-20 10:56 42.387646 -98.841473 246 34122ft 384kts
26-Apr-20 10:57 42.331095 -98.964017 247 34122ft 382kts
26-Apr-20 10:58 42.276046 -99.086590 247 34118ft 381kts
26-Apr-20 10:59 42.220972 -99.208782 247 34116ft 381kts
26-Apr-20 11:00 42.165117 -99.330181 247 34113ft 379kts
26-Apr-20 11:01 42.109928 -99.450831 247 34112ft 378kts
26-Apr-20 11:02 42.054451 -99.571610 247 34110ft 378kts
26-Apr-20 11:03 41.998998 -99.691532 247 34090ft 377kts
26-Apr-20 11:04 41.943596 -99.811154 247 34084ft 376kts
26-Apr-20 11:05 41.888198 -99.930281 247 34080ft 376kts
26-Apr-20 11:06 41.832678 -100.049204 247 34071ft 376kts
26-Apr-20 11:07 41.776912 -100.167943 247 34068ft 376kts
26-Apr-20 11:08 41.721139 -100.286678 247 34066ft 376kts
26-Apr-20 11:09 41.665654 -100.404887 247 34064ft 375kts
26-Apr-20 11:10 41.610253 -100.523213 247 34062ft 374kts
26-Apr-20 11:11 41.555100 -100.640628 247 34058ft 374kts
26-Apr-20 11:12 41.508282 -100.761607 260 34050ft 358kts
26-Apr-20 11:13 41.485204 -100.889285 265 34047ft 352kts
26-Apr-20 11:14 41.463909 -101.017152 264 34046ft 352kts
26-Apr-20 11:15 41.441111 -101.144192 263 34048ft 352kts
26-Apr-20 11:16 41.417362 -101.270822 263 34045ft 352kts
26-Apr-20 11:17 41.393529 -101.397281 263 34054ft 351kts
26-Apr-20 11:18 41.369978 -101.523187 263 34054ft 351kts
26-Apr-20 11:19 41.348678 -101.649797 262 34033ft 349kts
26-Apr-20 11:20 41.326311 -101.775698 260 34034ft 350kts
26-Apr-20 11:21 41.302177 -101.901373 260 34034ft 350kts
26-Apr-20 11:22 41.278061 -102.026893 260 34036ft 350kts
26-Apr-20 11:23 41.254110 -102.152419 259 34036ft 350kts
26-Apr-20 11:24 41.229518 -102.277237 260 34036ft 349kts
26-Apr-20 11:25 41.204535 -102.402388 259 34038ft 349kts
26-Apr-20 11:26 41.179935 -102.526843 259 34049ft 349kts
26-Apr-20 11:27 41.155322 -102.651288 259 34051ft 348kts
26-Apr-20 11:28 41.130871 -102.775537 259 34051ft 347kts
26-Apr-20 11:29 41.105967 -102.899451 259 34054ft 347kts
26-Apr-20 11:30 41.061646 -103.014444 237 34053ft 364kts
26-Apr-20 11:31 40.990198 -103.111262 233 34054ft 368kts
26-Apr-20 11:32 40.918418 -103.207375 234 34061ft 366kts
26-Apr-20 11:33 40.848456 -103.304621 234 34063ft 365kts
26-Apr-20 11:34 40.778284 -103.401586 234 34095ft 364kts
26-Apr-20 11:35 40.708315 -103.498003 234 34027ft 363kts
26-Apr-20 11:36 40.638346 -103.593853 234 34045ft 362kts
26-Apr-20 11:37 40.568978 -103.689700 235 34074ft 361kts
26-Apr-20 11:38 40.499447 -103.784834 234 34068ft 361kts
26-Apr-20 11:39 40.429291 -103.879611 234 34123ft 360kts
26-Apr-20 11:40 40.360100 -103.974200 235 34100ft 358kts
26-Apr-20 11:41 40.291049 -104.068678 234 34103ft 358kts
26-Apr-20 11:42 40.221727 -104.162215 234 34104ft 358kts
26-Apr-20 11:43 40.152175 -104.255673 234 34108ft 358kts
26-Apr-20 11:44 40.082608 -104.348707 234 34111ft 358kts
26-Apr-20 11:45 40.013177 -104.441549 234 34115ft 358kts
26-Apr-20 11:46 39.943327 -104.534580 234 34119ft 358kts
26-Apr-20 11:47 39.884422 -104.633213 252 34124ft 341kts
26-Apr-20 11:48 39.861616 -104.742755 262 34126ft 336kts
26-Apr-20 11:49 39.842282 -104.860736 260 34139ft 335kts
26-Apr-20 11:50 39.820277 -104.978719 260 34142ft 335kts
26-Apr-20 11:51 39.797534 -105.096573 259 34143ft 335kts
26-Apr-20 11:52 39.774519 -105.214030 259 34132ft 335kts
26-Apr-20 11:53 39.751376 -105.331026 259 34206ft 333kts
26-Apr-20 11:54 39.728352 -105.447303 259 34104ft 329kts
26-Apr-20 11:55 39.706880 -105.554880 259 32726ft 290kts
26-Apr-20 11:56 39.687001 -105.653771 259 31415ft 278kts
26-Apr-20 11:57 39.667415 -105.751331 259 30137ft 282kts
26-Apr-20 11:58 39.648465 -105.849111 259 28856ft 276kts
26-Apr-20 11:59 39.630827 -105.940178 258 27668ft 271kts
26-Apr-20 12:00 39.610268 -106.048975 257 26319ft 331kts
26-Apr-20 12:01 39.588261 -106.162760 256 24818ft 322kts
26-Apr-20 12:02 39.566216 -106.274215 256 23316ft 314kts
26-Apr-20 12:03 39.543950 -106.382116 255 21892ft 307kts
26-Apr-20 12:04 39.521922 -106.487449 256 20492ft 299kts
26-Apr-20 12:05 39.500294 -106.590692 256 19028ft 293kts
26-Apr-20 12:06 39.479226 -106.690552 255 17549ft 273kts
26-Apr-20 12:07 39.460650 -106.779406 255 16208ft 245kts
26-Apr-20 12:08 39.444075 -106.860563 255 14801ft 223kts
26-Apr-20 12:09 39.423622 -106.932975 249 13865ft 202kts
26-Apr-20 12:10 39.376499 -106.946252 150 13372ft 210kts
26-Apr-20 12:11 39.334195 -106.919364 167 12073ft 138kts
26-Apr-20 12:12 39.297900 -106.903253 165 10696ft 137kts
26-Apr-20 12:13 39.261381 -106.887278 164 9207ft 142kts
26-Apr-20 12:14 39.226731 -106.870514 162 7828ft 110kts
26-Apr-20 12:15 39.220299 -106.866545 82 7828ft 3kts
26-Apr-20 12:16 39.219377 -106.865000 119 7828ft 0kts
26-Apr-20 12:17 39.219376 -106.865000 119 7828ft 0kts
26-Apr-20 12:18 39.219376 -106.865000 119 7828ft 0kts
26-Apr-20 12:19 39.219376 -106.865000 119 7828ft 0kts

Navigation Log

Ident Type
Flight plan parsing failed, navigation log unavailable